Trebic, Czech Republic
Current Conditions -  °F | °C
As of 1:00 AM on Thursday 23 Oct 2014 (Local Time) from LKNA Reporting Station
Light Rain Light Rain  
Wind Chill: 35°   Ceiling: 1200
Heat Index: 41°   Visibility: 6mi
Dew Point: 41°   Wind: 10mph
Humidity: 100%   Direction: 310°NW
Pressure: 29.71"   Gusts: NA
Location:  49.22°N, 15.87°E
Report Text: LKNA 222300Z 31009KT 9999 -RA FEW007 BKN012 OVC017 05/05 Q1006
Loading
Personal Weather Stations






























Interactive Weather Map
Tropical Storm Tracking
New forecast layout! Learn more

10-Day Weather Forecast

Advertisements
Track Severe Weather on mobile